createdAt,value
2023-07-29T00:02:14.897Z,98245.39
2023-07-29T00:07:16.959Z,98241.77
2023-07-29T00:12:18.800Z,98253.14
2023-07-29T00:17:21.588Z,98262.53
2023-07-29T00:22:23.795Z,98247.57
2023-07-29T00:27:26.047Z,98243.00
2023-07-29T00:32:32.202Z,98248.98
2023-07-29T00:37:34.243Z,98240.52
2023-07-29T00:42:36.258Z,98235.85
2023-07-29T00:47:39.496Z,98227.15
2023-07-29T00:52:42.497Z,98215.98
2023-07-29T00:57:49.241Z,98216.11
2023-07-29T01:02:51.464Z,98219.75
2023-07-29T01:08:02.726Z,98225.62
2023-07-29T01:13:12.166Z,98226.09
2023-07-29T01:18:22.348Z,98225.72
2023-07-29T01:23:30.243Z,98230.77
2023-07-29T01:28:33.712Z,98225.64
2023-07-29T01:33:41.567Z,98229.66
2023-07-29T01:38:45.629Z,98234.13
2023-07-29T01:43:48.092Z,98235.20
2023-07-29T01:48:50.086Z,98234.34
2023-07-29T01:53:52.139Z,98242.09
2023-07-29T01:58:53.962Z,98247.91
2023-07-29T02:03:56.931Z,98251.63
2023-07-29T02:08:59.320Z,98248.02
2023-07-29T02:14:01.529Z,98246.47
2023-07-29T02:19:04.463Z,98248.84
2023-07-29T02:24:06.298Z,98251.39
2023-07-29T02:29:08.265Z,98248.54
2023-07-29T02:34:10.454Z,98246.85
2023-07-29T02:39:12.484Z,98248.98
2023-07-29T02:44:14.433Z,98251.55
2023-07-29T02:49:16.299Z,98251.52
2023-07-29T02:54:18.174Z,98252.16
2023-07-29T02:59:19.999Z,98257.64
2023-07-29T03:04:21.848Z,98256.40
2023-07-29T03:09:24.018Z,98261.40
2023-07-29T03:14:26.157Z,98259.27
2023-07-29T03:19:28.092Z,98258.20
2023-07-29T03:24:30.658Z,98260.55
2023-07-29T03:29:32.869Z,98258.63
2023-07-29T03:34:35.385Z,98263.45
2023-07-29T03:39:37.904Z,98264.89
2023-07-29T03:44:43.169Z,98269.23
2023-07-29T03:49:45.099Z,98268.13
2023-07-29T03:54:47.593Z,98275.84
2023-07-29T03:59:49.838Z,98274.85
2023-07-29T04:04:51.981Z,98275.45
2023-07-29T04:09:54.266Z,98274.05
2023-07-29T04:14:56.704Z,98282.11
2023-07-29T04:19:58.577Z,98277.02
2023-07-29T04:25:06.042Z,98275.30
2023-07-29T04:30:08.253Z,98275.84
2023-07-29T04:35:10.354Z,98279.61
2023-07-29T04:40:12.652Z,98282.70
2023-07-29T04:45:14.789Z,98285.00
2023-07-29T04:50:16.883Z,98289.01
2023-07-29T04:55:18.978Z,98288.06
2023-07-29T05:00:20.952Z,98293.95
2023-07-29T05:05:23.123Z,98303.47
2023-07-29T05:10:25.310Z,98306.84
2023-07-29T05:15:27.166Z,98302.37
2023-07-29T05:20:29.029Z,98309.45
2023-07-29T05:25:30.862Z,98317.36
2023-07-29T05:30:35.128Z,98316.36
2023-07-29T05:35:36.996Z,98309.39
2023-07-29T05:40:39.176Z,98310.23
2023-07-29T05:45:41.545Z,98312.16
2023-07-29T05:50:43.560Z,98310.05
2023-07-29T05:55:45.552Z,98303.14
2023-07-29T06:00:47.552Z,98314.66
2023-07-29T06:05:51.788Z,98319.25
2023-07-29T06:10:55.397Z,98324.83
2023-07-29T06:15:57.357Z,98321.34
2023-07-29T06:20:59.316Z,98328.79
2023-07-29T06:26:01.810Z,98331.33
2023-07-29T06:31:03.727Z,98337.49
2023-07-29T06:36:05.776Z,98339.20
2023-07-29T06:41:07.649Z,98339.80
2023-07-29T06:46:10.104Z,98345.73
2023-07-29T06:51:11.974Z,98346.90
2023-07-29T06:56:13.902Z,98346.22
2023-07-29T07:01:16.128Z,98347.81
2023-07-29T07:06:18.015Z,98347.21
2023-07-29T07:11:20.406Z,98343.90
2023-07-29T07:16:22.295Z,98336.90
2023-07-29T07:21:24.157Z,98340.66
2023-07-29T07:26:26.056Z,98339.34
2023-07-29T07:31:28.062Z,98340.65
2023-07-29T07:36:30.575Z,98338.73
2023-07-29T07:41:32.384Z,98334.63
2023-07-29T07:46:34.518Z,98336.73
2023-07-29T07:51:36.833Z,98336.54
2023-07-29T07:56:38.894Z,98336.54
2023-07-29T08:01:41.176Z,98337.83
2023-07-29T08:06:43.581Z,98331.76
2023-07-29T08:11:45.929Z,98328.35
2023-07-29T08:16:48.020Z,98324.89
2023-07-29T08:21:50.086Z,98319.85
2023-07-29T08:26:51.866Z,98314.71
2023-07-29T08:31:53.790Z,98311.58
2023-07-29T08:36:55.831Z,98307.35
2023-07-29T08:42:08.476Z,98309.05
2023-07-29T08:47:11.348Z,98309.05
2023-07-29T08:52:13.726Z,98302.03
2023-07-29T08:57:16.216Z,98304.27
2023-07-29T09:02:19.371Z,98299.98
2023-07-29T09:07:22.264Z,98296.36
2023-07-29T09:12:24.334Z,98295.14
2023-07-29T09:17:26.474Z,98289.92
2023-07-29T09:22:28.872Z,98289.52
2023-07-29T09:27:32.999Z,98284.79
2023-07-29T09:32:34.950Z,98288.09
2023-07-29T09:37:37.153Z,98279.65
2023-07-29T09:42:39.094Z,98261.12
2023-07-29T09:47:42.946Z,98271.52
2023-07-29T09:52:46.689Z,98265.70
2023-07-29T09:57:48.699Z,98260.64
2023-07-29T10:02:51.099Z,98257.18
2023-07-29T10:07:54.731Z,98248.94
2023-07-29T10:12:57.877Z,98248.32
2023-07-29T10:18:00.693Z,98247.65
2023-07-29T10:23:08.457Z,98248.78
2023-07-29T10:28:13.802Z,98251.55
2023-07-29T10:33:15.804Z,98248.05
2023-07-29T10:38:18.826Z,98249.10
2023-07-29T10:43:36.357Z,98249.45
2023-07-29T10:48:42.867Z,98237.29
2023-07-29T10:53:44.802Z,98238.32
2023-07-29T10:58:46.676Z,98240.09
2023-07-29T11:04:20.387Z,98237.63
2023-07-29T11:09:42.637Z,98228.89
2023-07-29T11:14:44.652Z,98227.98
2023-07-29T11:19:47.575Z,98225.35
2023-07-29T11:24:49.554Z,98217.45
2023-07-29T11:29:51.259Z,98213.25
2023-07-29T11:34:53.313Z,98214.27
2023-07-29T11:39:55.137Z,98206.58
2023-07-29T11:45:00.339Z,98203.60
2023-07-29T11:50:03.521Z,98199.89
2023-07-29T11:55:06.775Z,98201.14
2023-07-29T12:00:15.969Z,98207.13
2023-07-29T12:05:22.765Z,98201.77
2023-07-29T12:10:25.640Z,98199.64
2023-07-29T12:15:29.260Z,98191.64
2023-07-29T12:20:31.593Z,98184.50
2023-07-29T12:25:33.689Z,98176.50
2023-07-29T12:30:35.931Z,98175.65
2023-07-29T12:35:39.033Z,98176.08
2023-07-29T12:40:41.858Z,98169.31
2023-07-29T12:45:45.118Z,98161.16
2023-07-29T12:50:47.361Z,98161.91
2023-07-29T12:55:49.187Z,98158.92
2023-07-29T13:00:51.467Z,98159.09
2023-07-29T13:05:53.588Z,98159.90
2023-07-29T13:10:55.482Z,98155.30
2023-07-29T13:16:00.664Z,98154.11
2023-07-29T13:21:04.485Z,98151.69
2023-07-29T13:26:06.329Z,98144.77
2023-07-29T13:31:08.180Z,98134.16
2023-07-29T13:36:10.045Z,98131.52
2023-07-29T13:41:11.784Z,98122.95
2023-07-29T13:46:13.664Z,98117.75
2023-07-29T13:51:15.512Z,98110.45
2023-07-29T13:56:17.387Z,98108.64
2023-07-29T14:01:19.385Z,98103.80
2023-07-29T14:06:28.604Z,98094.88
2023-07-29T14:11:37.871Z,98092.38
2023-07-29T14:16:40.586Z,98091.94
2023-07-29T14:21:42.601Z,98088.15
2023-07-29T14:26:44.390Z,98076.43
2023-07-29T14:31:46.490Z,98079.84
2023-07-29T14:36:48.516Z,98076.45
2023-07-29T14:41:50.522Z,98073.20
2023-07-29T14:46:52.545Z,98063.69
2023-07-29T14:51:55.218Z,98059.14
2023-07-29T14:56:59.665Z,98059.34
2023-07-29T15:02:01.654Z,98059.68
2023-07-29T15:07:04.121Z,98066.85
2023-07-29T15:12:06.602Z,98078.55
2023-07-29T15:17:08.447Z,98086.52
2023-07-29T15:22:10.446Z,98088.38
2023-07-29T15:27:12.257Z,98086.27
2023-07-29T15:32:14.120Z,98088.18
2023-07-29T15:37:16.477Z,98096.95
2023-07-29T15:42:18.398Z,98096.34
2023-07-29T15:47:20.306Z,98097.27
2023-07-29T15:52:22.222Z,98089.77
2023-07-29T15:57:24.508Z,98078.81
2023-07-29T16:02:27.560Z,98066.75
2023-07-29T16:07:29.593Z,98056.09
2023-07-29T16:12:31.731Z,98046.71
2023-07-29T16:17:33.630Z,98044.42
2023-07-29T16:22:35.877Z,98043.46
2023-07-29T16:27:37.876Z,98045.19
2023-07-29T16:32:39.918Z,98042.15
2023-07-29T16:37:41.712Z,98054.48
2023-07-29T16:42:43.962Z,98071.14
2023-07-29T16:47:45.837Z,98070.33
2023-07-29T16:52:50.161Z,98061.96
2023-07-29T16:57:52.081Z,98071.40
2023-07-29T17:02:54.066Z,98076.05
2023-07-29T17:07:56.243Z,98078.73
2023-07-29T17:12:58.152Z,98074.35
2023-07-29T17:18:00.002Z,98076.22
2023-07-29T17:23:01.885Z,98078.45
2023-07-29T17:28:05.388Z,98073.77
2023-07-29T17:33:07.375Z,98075.60
2023-07-29T17:38:13.207Z,98070.38
2023-07-29T17:43:15.655Z,98073.41
2023-07-29T17:48:17.558Z,98063.17
2023-07-29T17:53:19.786Z,98063.48
2023-07-29T17:58:21.718Z,98070.64
2023-07-29T18:03:23.626Z,98075.04
2023-07-29T18:08:26.281Z,98080.50
2023-07-29T18:13:28.066Z,98079.84
2023-07-29T18:18:30.499Z,98085.83
2023-07-29T18:23:33.038Z,98091.21
2023-07-29T18:28:34.955Z,98090.36
2023-07-29T18:33:37.430Z,98096.08
2023-07-29T18:38:39.302Z,98100.58
2023-07-29T18:43:41.164Z,98117.68
2023-07-29T18:48:42.962Z,98134.67
2023-07-29T18:53:44.750Z,98139.23
2023-07-29T18:58:46.743Z,98142.28
2023-07-29T19:03:49.699Z,98142.98
2023-07-29T19:08:52.336Z,98145.91
2023-07-29T19:13:55.520Z,98148.35
2023-07-29T19:18:57.603Z,98157.98
2023-07-29T19:24:00.138Z,98153.96
2023-07-29T19:29:01.958Z,98145.91
2023-07-29T19:34:03.802Z,98143.42
2023-07-29T19:39:05.677Z,98144.99
2023-07-29T19:44:20.863Z,98149.15
2023-07-29T19:49:24.730Z,98155.69
2023-07-29T19:54:26.553Z,98159.30
2023-07-29T19:59:37.956Z,98160.73
2023-07-29T20:04:40.434Z,98156.18
2023-07-29T20:09:42.458Z,98153.95
2023-07-29T20:14:44.818Z,98147.92
2023-07-29T20:19:46.797Z,98143.48
2023-07-29T20:24:48.755Z,98146.58
2023-07-29T20:29:50.692Z,98143.41
2023-07-29T20:34:53.310Z,98138.88
2023-07-29T20:39:56.022Z,98137.20
2023-07-29T20:44:57.961Z,98143.97
2023-07-29T20:49:59.730Z,98144.77
2023-07-29T20:55:01.513Z,98142.63
2023-07-29T21:00:04.951Z,98141.99
2023-07-29T21:05:07.333Z,98147.56
2023-07-29T21:10:14.153Z,98140.94
2023-07-29T21:15:16.101Z,98147.80
2023-07-29T21:20:17.913Z,98140.70
2023-07-29T21:25:20.711Z,98144.26
2023-07-29T21:30:23.303Z,98160.09
2023-07-29T21:35:28.769Z,98162.11
2023-07-29T21:40:51.595Z,98164.36
2023-07-29T21:45:57.973Z,98160.90
2023-07-29T21:51:00.149Z,98170.56
2023-07-29T21:56:03.465Z,98175.30
2023-07-29T22:01:05.578Z,98169.89
2023-07-29T22:06:07.645Z,98168.24
2023-07-29T22:11:13.158Z,98169.04
2023-07-29T22:16:15.023Z,98167.70
2023-07-29T22:21:16.939Z,98169.13
2023-07-29T22:26:18.889Z,98166.73
2023-07-29T22:31:20.875Z,98171.05
2023-07-29T22:36:22.830Z,98170.80
2023-07-29T22:41:24.830Z,98170.70
2023-07-29T22:46:26.922Z,98171.83
2023-07-29T22:51:28.823Z,98177.10
2023-07-29T22:56:30.839Z,98174.84
2023-07-29T23:01:32.777Z,98181.48
2023-07-29T23:06:34.837Z,98198.81
2023-07-29T23:11:37.160Z,98198.48
2023-07-29T23:16:39.245Z,98200.16
2023-07-29T23:21:41.201Z,98209.32
2023-07-29T23:26:44.194Z,98212.50
2023-07-29T23:31:46.533Z,98208.40
2023-07-29T23:37:08.364Z,98204.94
2023-07-29T23:42:23.883Z,98220.26
2023-07-29T23:47:26.477Z,98223.73
2023-07-29T23:52:28.390Z,98228.98
2023-07-29T23:57:30.673Z,98229.63
